createdAt,value
2023-01-11T00:04:11.142Z,64.96
2023-01-11T00:09:14.197Z,65.53
2023-01-11T00:14:16.973Z,65.30
2023-01-11T00:19:19.646Z,65.54
2023-01-11T00:24:22.374Z,65.11
2023-01-11T00:29:25.110Z,64.85
2023-01-11T00:34:28.114Z,65.22
2023-01-11T00:39:31.119Z,66.13
2023-01-11T00:44:52.177Z,65.05
2023-01-11T00:49:55.000Z,66.04
2023-01-11T00:54:57.783Z,65.28
2023-01-11T01:00:01.019Z,65.61
2023-01-11T01:05:04.483Z,65.92
2023-01-11T01:10:08.335Z,65.09
2023-01-11T01:15:11.505Z,65.36
2023-01-11T01:20:15.466Z,66.10
2023-01-11T01:25:18.572Z,65.83
2023-01-11T01:30:21.461Z,66.13
2023-01-11T01:35:24.168Z,66.02
2023-01-11T01:40:26.909Z,65.70
2023-01-11T01:45:29.601Z,65.89
2023-01-11T01:50:41.497Z,65.74
2023-01-11T01:55:46.679Z,65.79
2023-01-11T02:00:49.377Z,66.09
2023-01-11T02:05:52.829Z,65.85
2023-01-11T02:10:56.353Z,66.21
2023-01-11T02:16:08.308Z,66.17
2023-01-11T02:21:27.932Z,66.15
2023-01-11T02:26:39.502Z,65.82
2023-01-11T02:32:01.859Z,66.27
2023-01-11T02:37:08.371Z,65.74
2023-01-11T02:42:38.813Z,65.70
2023-01-11T02:48:12.438Z,65.93
2023-01-11T02:53:30.464Z,65.91
2023-01-11T02:58:37.156Z,66.10
2023-01-11T03:03:39.882Z,66.39
2023-01-11T03:09:16.310Z,66.19
2023-01-11T03:14:29.531Z,65.48
2023-01-11T03:19:46.794Z,65.89
2023-01-11T03:25:18.683Z,65.92
2023-01-11T03:30:37.341Z,65.72
2023-01-11T03:35:55.632Z,65.53
2023-01-11T03:41:21.055Z,65.81
2023-01-11T03:46:28.297Z,65.09
2023-01-11T03:51:34.124Z,65.92
2023-01-11T03:56:41.670Z,65.70
2023-01-11T04:01:44.810Z,65.35
2023-01-11T04:06:47.689Z,65.71
2023-01-11T04:11:50.405Z,65.19
2023-01-11T04:16:53.086Z,64.97
2023-01-11T04:21:55.814Z,64.41
2023-01-11T04:26:58.469Z,64.27
2023-01-11T04:32:01.470Z,64.48
2023-01-11T04:37:04.290Z,64.01
2023-01-11T04:42:19.026Z,64.70
2023-01-11T04:47:23.537Z,64.19
2023-01-11T04:52:26.386Z,63.91
2023-01-11T04:57:29.095Z,63.62
2023-01-11T05:02:31.895Z,63.98
2023-01-11T05:07:34.799Z,64.11
2023-01-11T05:12:37.726Z,63.24
2023-01-11T05:17:40.388Z,63.07
2023-01-11T05:22:43.057Z,63.81
2023-01-11T05:27:45.824Z,62.77
2023-01-11T05:32:48.583Z,63.53
2023-01-11T05:37:51.275Z,63.06
2023-01-11T05:42:53.924Z,62.79
2023-01-11T05:47:56.613Z,62.89
2023-01-11T05:52:59.297Z,63.35
2023-01-11T05:58:02.144Z,63.05
2023-01-11T06:03:05.045Z,62.88
2023-01-11T06:08:07.817Z,62.98
2023-01-11T06:13:28.865Z,63.19
2023-01-11T06:18:36.747Z,62.54
2023-01-11T06:23:42.129Z,62.92
2023-01-11T06:28:45.133Z,62.23
2023-01-11T06:33:48.266Z,62.48
2023-01-11T06:38:52.582Z,62.57
2023-01-11T06:43:55.403Z,63.42
2023-01-11T06:48:58.095Z,62.70
2023-01-11T06:54:00.815Z,63.13
2023-01-11T06:59:03.527Z,63.35
2023-01-11T07:04:06.230Z,63.10
2023-01-11T07:09:09.053Z,62.46
2023-01-11T07:14:15.378Z,62.69
2023-01-11T07:19:18.746Z,62.10
2023-01-11T07:24:23.190Z,62.29
2023-01-11T07:29:25.949Z,62.24
2023-01-11T07:34:28.775Z,62.21
2023-01-11T07:39:42.829Z,62.19
2023-01-11T07:44:46.578Z,61.30
2023-01-11T07:49:49.378Z,62.46
2023-01-11T07:54:51.983Z,61.46
2023-01-11T07:59:54.946Z,62.03
2023-01-11T08:04:58.645Z,62.75
2023-01-11T08:10:01.217Z,61.24
2023-01-11T08:15:04.219Z,61.05
2023-01-11T08:20:07.048Z,61.88
2023-01-11T08:25:10.512Z,62.60
2023-01-11T08:30:14.117Z,62.14
2023-01-11T08:35:17.175Z,61.93
2023-01-11T08:40:21.684Z,61.58
2023-01-11T08:45:26.446Z,62.07
2023-01-11T08:50:29.113Z,62.04
2023-01-11T08:55:31.785Z,61.21
2023-01-11T09:00:34.447Z,61.93
2023-01-11T09:05:37.238Z,62.68
2023-01-11T09:10:39.890Z,61.86
2023-01-11T09:15:42.717Z,61.89
2023-01-11T09:20:45.453Z,61.70
2023-01-11T09:25:48.268Z,62.15
2023-01-11T09:30:53.781Z,62.69
2023-01-11T09:35:58.806Z,62.07
2023-01-11T09:41:35.428Z,61.85
2023-01-11T09:46:42.677Z,62.16
2023-01-11T09:51:46.642Z,62.99
2023-01-11T09:57:07.254Z,62.56
2023-01-11T10:02:23.806Z,62.31
2023-01-11T10:07:46.292Z,62.33
2023-01-11T10:19:18.528Z,62.93
2023-01-11T10:24:04.052Z,63.06
2023-01-11T10:29:35.484Z,63.42
2023-01-11T10:35:00.172Z,64.15
2023-01-11T10:40:33.667Z,63.37
2023-01-11T10:45:51.345Z,62.96
2023-01-11T10:51:28.312Z,63.84
2023-01-11T10:57:02.584Z,64.45
2023-01-11T11:02:26.229Z,62.90
2023-01-11T11:07:43.850Z,63.63
2023-01-11T11:12:59.298Z,63.90
2023-01-11T11:18:01.976Z,64.42
2023-01-11T11:23:04.979Z,63.94
2023-01-11T11:28:08.681Z,63.41
2023-01-11T11:33:28.219Z,63.35
2023-01-11T11:38:38.803Z,64.23
2023-01-11T11:43:45.939Z,63.82
2023-01-11T11:49:11.259Z,63.23
2023-01-11T11:54:25.027Z,63.91
2023-01-11T11:59:30.227Z,64.11
2023-01-11T12:04:43.584Z,64.04
2023-01-11T12:10:11.528Z,64.25
2023-01-11T12:15:15.273Z,64.60
2023-01-11T12:20:24.185Z,64.25
2023-01-11T12:25:29.229Z,64.54
2023-01-11T12:30:59.063Z,64.61
2023-01-11T12:36:52.564Z,65.02
2023-01-11T12:41:55.265Z,64.47
2023-01-11T12:47:33.080Z,64.18
2023-01-11T12:53:08.034Z,64.06
2023-01-11T12:58:14.455Z,63.76
2023-01-11T13:03:36.034Z,63.78
2023-01-11T13:09:14.350Z,64.86
2023-01-11T13:14:39.076Z,64.72
2023-01-11T13:20:20.728Z,63.86
2023-01-11T13:25:28.914Z,63.96
2023-01-11T13:30:32.473Z,64.28
2023-01-11T13:35:42.289Z,64.26
2023-01-11T13:40:51.438Z,64.86
2023-01-11T13:46:07.172Z,64.42
2023-01-11T13:51:20.688Z,64.14
2023-01-11T13:56:32.300Z,63.89
2023-01-11T14:01:54.103Z,64.02
2023-01-11T14:06:59.681Z,64.39
2023-01-11T14:12:08.600Z,64.44
2023-01-11T14:17:29.852Z,63.52
2023-01-11T14:22:41.676Z,64.42
2023-01-11T14:28:30.108Z,63.54
2023-01-11T14:33:35.357Z,64.32
2023-01-11T14:39:05.723Z,64.24
2023-01-11T14:44:29.447Z,64.20
2023-01-11T14:50:06.832Z,62.96
2023-01-11T14:55:35.694Z,64.28
2023-01-11T15:00:44.389Z,63.45
2023-01-11T15:05:59.901Z,63.97
2023-01-11T15:11:23.001Z,63.97
2023-01-11T15:16:46.774Z,63.42
2023-01-11T15:21:51.010Z,64.19
2023-01-11T15:26:54.629Z,63.81
2023-01-11T15:32:04.830Z,64.29
2023-01-11T15:37:22.429Z,64.00
2023-01-11T15:42:28.016Z,64.06
2023-01-11T15:47:39.720Z,63.86
2023-01-11T15:53:09.862Z,64.05
2023-01-11T15:58:49.993Z,63.74
2023-01-11T16:04:23.439Z,64.02
2023-01-11T16:09:45.954Z,64.28
2023-01-11T16:14:54.262Z,64.45
2023-01-11T16:19:57.356Z,64.91
2023-01-11T16:25:05.763Z,64.28
2023-01-11T16:30:16.053Z,64.29
2023-01-11T16:35:21.514Z,64.13
2023-01-11T16:40:29.913Z,64.00
2023-01-11T16:45:47.353Z,64.07
2023-01-11T16:51:06.514Z,63.85
2023-01-11T16:56:22.066Z,64.61
2023-01-11T17:01:24.787Z,64.20
2023-01-11T17:06:27.637Z,64.68
2023-01-11T17:11:47.054Z,64.41
2023-01-11T17:16:52.379Z,64.41
2023-01-11T17:22:17.946Z,64.39
2023-01-11T17:27:40.961Z,63.91
2023-01-11T17:32:45.129Z,64.42
2023-01-11T17:37:57.324Z,64.47
2023-01-11T17:43:25.004Z,64.47
2023-01-11T17:48:28.821Z,64.57
2023-01-11T17:53:35.965Z,64.50
2023-01-11T17:58:39.175Z,64.55
2023-01-11T18:03:45.816Z,65.01
2023-01-11T18:08:51.120Z,64.88
2023-01-11T18:13:55.376Z,64.93
2023-01-11T18:18:58.264Z,64.73
2023-01-11T18:24:10.569Z,64.79
2023-01-11T18:29:38.186Z,64.54
2023-01-11T18:34:41.936Z,64.64
2023-01-11T18:39:44.739Z,64.61
2023-01-11T18:44:49.764Z,64.74
2023-01-11T18:49:53.488Z,64.74
2023-01-11T18:54:57.196Z,64.65
2023-01-11T19:00:00.117Z,64.57
2023-01-11T19:05:03.238Z,64.70
2023-01-11T19:10:06.635Z,65.01
2023-01-11T19:15:09.830Z,65.08
2023-01-11T19:20:14.360Z,64.99
2023-01-11T19:25:17.175Z,65.34
2023-01-11T19:30:19.970Z,64.85
2023-01-11T19:35:24.044Z,64.88
2023-01-11T19:40:26.824Z,64.24
2023-01-11T19:45:29.480Z,64.71
2023-01-11T19:50:32.358Z,65.12
2023-01-11T19:55:35.244Z,64.82
2023-01-11T20:00:38.164Z,65.04
2023-01-11T20:05:40.953Z,65.05
2023-01-11T20:10:43.716Z,65.29
2023-01-11T20:15:46.498Z,65.11
2023-01-11T20:20:58.453Z,65.35
2023-01-11T20:26:02.496Z,65.09
2023-01-11T20:31:07.444Z,65.17
2023-01-11T20:36:15.118Z,65.16
2023-01-11T20:41:42.247Z,65.21
2023-01-11T20:46:47.841Z,65.54
2023-01-11T20:51:51.332Z,65.19
2023-01-11T20:56:54.188Z,65.47
2023-01-11T21:01:57.098Z,65.51
2023-01-11T21:06:59.717Z,65.07
2023-01-11T21:12:02.961Z,64.75
2023-01-11T21:17:05.626Z,65.64
2023-01-11T21:22:08.336Z,65.00
2023-01-11T21:27:11.224Z,65.26
2023-01-11T21:32:13.890Z,65.37
2023-01-11T21:37:16.539Z,65.12
2023-01-11T21:42:19.450Z,65.88
2023-01-11T21:47:22.611Z,65.87
2023-01-11T21:52:25.424Z,65.48
2023-01-11T21:57:28.123Z,66.06
2023-01-11T22:02:30.842Z,65.48
2023-01-11T22:07:33.707Z,64.99
2023-01-11T22:12:36.436Z,65.39
2023-01-11T22:17:39.185Z,65.53
2023-01-11T22:22:41.882Z,65.09
2023-01-11T22:27:44.603Z,65.52
2023-01-11T22:32:48.281Z,65.18
2023-01-11T22:37:50.983Z,65.41
2023-01-11T22:42:53.766Z,65.77
2023-01-11T22:47:59.496Z,65.06
2023-01-11T22:53:02.244Z,65.81
2023-01-11T22:58:05.163Z,65.09
2023-01-11T23:03:07.980Z,65.62
2023-01-11T23:08:10.826Z,65.36
2023-01-11T23:13:32.053Z,65.45
2023-01-11T23:18:34.811Z,65.43
2023-01-11T23:23:38.560Z,65.48
2023-01-11T23:28:41.648Z,65.32
2023-01-11T23:33:49.147Z,65.16
2023-01-11T23:38:51.818Z,65.47
2023-01-11T23:43:54.561Z,65.32
2023-01-11T23:48:57.278Z,65.68
2023-01-11T23:54:00.620Z,65.33
2023-01-11T23:59:04.597Z,65.51
